sensor_id;sensor_type;location;lat;lon;timestamp;P1;durP1;ratioP1;P2;durP2;ratioP2
53267;SDS011;39156;51.176;6.738;2023-02-08T00:01:22;53.60;;;50.00;;
53267;SDS011;39156;51.176;6.738;2023-02-08T00:03:49;54.45;;;50.50;;
53267;SDS011;39156;51.176;6.738;2023-02-08T00:06:15;53.95;;;50.55;;
53267;SDS011;39156;51.176;6.738;2023-02-08T00:08:42;56.67;;;52.67;;
53267;SDS011;39156;51.176;6.738;2023-02-08T00:11:08;52.95;;;49.67;;
53267;SDS011;39156;51.176;6.738;2023-02-08T00:13:35;53.30;;;49.47;;
53267;SDS011;39156;51.176;6.738;2023-02-08T00:18:28;56.67;;;52.72;;
53267;SDS011;39156;51.176;6.738;2023-02-08T00:20:54;54.38;;;50.85;;
53267;SDS011;39156;51.176;6.738;2023-02-08T00:23:21;54.83;;;51.33;;
53267;SDS011;39156;51.176;6.738;2023-02-08T00:25:47;58.75;;;54.03;;
53267;SDS011;39156;51.176;6.738;2023-02-08T00:28:14;55.90;;;52.10;;
53267;SDS011;39156;51.176;6.738;2023-02-08T00:30:41;53.20;;;49.90;;
53267;SDS011;39156;51.176;6.738;2023-02-08T00:33:07;53.67;;;50.28;;
53267;SDS011;39156;51.176;6.738;2023-02-08T00:35:33;56.60;;;52.90;;
53267;SDS011;39156;51.176;6.738;2023-02-08T00:37:59;54.97;;;51.38;;
53267;SDS011;39156;51.176;6.738;2023-02-08T00:40:25;53.45;;;50.05;;
53267;SDS011;39156;51.176;6.738;2023-02-08T00:42:51;53.80;;;50.40;;
53267;SDS011;39156;51.176;6.738;2023-02-08T00:45:17;53.63;;;50.33;;
53267;SDS011;39156;51.176;6.738;2023-02-08T00:47:43;55.40;;;51.97;;
53267;SDS011;39156;51.176;6.738;2023-02-08T00:50:09;53.97;;;50.38;;
53267;SDS011;39156;51.176;6.738;2023-02-08T00:52:35;53.72;;;50.33;;
53267;SDS011;39156;51.176;6.738;2023-02-08T00:55:02;54.90;;;51.30;;
53267;SDS011;39156;51.176;6.738;2023-02-08T00:57:30;55.08;;;51.67;;
53267;SDS011;39156;51.176;6.738;2023-02-08T00:59:57;55.60;;;51.83;;
53267;SDS011;39156;51.176;6.738;2023-02-08T01:02:23;54.70;;;50.75;;
53267;SDS011;39156;51.176;6.738;2023-02-08T01:04:49;55.83;;;52.00;;
53267;SDS011;39156;51.176;6.738;2023-02-08T01:07:15;54.38;;;50.92;;
53267;SDS011;39156;51.176;6.738;2023-02-08T01:09:40;55.10;;;51.50;;
53267;SDS011;39156;51.176;6.738;2023-02-08T01:12:06;54.28;;;50.85;;
53267;SDS011;39156;51.176;6.738;2023-02-08T01:14:32;54.50;;;51.00;;
53267;SDS011;39156;51.176;6.738;2023-02-08T01:16:58;56.38;;;52.67;;
53267;SDS011;39156;51.176;6.738;2023-02-08T01:19:23;55.10;;;51.60;;
53267;SDS011;39156;51.176;6.738;2023-02-08T01:21:49;56.10;;;52.70;;
53267;SDS011;39156;51.176;6.738;2023-02-08T01:24:15;53.80;;;50.50;;
53267;SDS011;39156;51.176;6.738;2023-02-08T01:26:41;53.75;;;50.38;;
53267;SDS011;39156;51.176;6.738;2023-02-08T01:29:07;54.13;;;50.63;;
53267;SDS011;39156;51.176;6.738;2023-02-08T01:31:34;53.78;;;50.25;;
53267;SDS011;39156;51.176;6.738;2023-02-08T01:34:03;55.58;;;51.78;;
53267;SDS011;39156;51.176;6.738;2023-02-08T01:36:30;55.70;;;52.20;;
53267;SDS011;39156;51.176;6.738;2023-02-08T01:38:56;55.33;;;52.00;;
53267;SDS011;39156;51.176;6.738;2023-02-08T01:41:24;55.20;;;51.60;;
53267;SDS011;39156;51.176;6.738;2023-02-08T01:46:32;54.88;;;51.33;;
53267;SDS011;39156;51.176;6.738;2023-02-08T01:49:08;54.53;;;50.97;;
53267;SDS011;39156;51.176;6.738;2023-02-08T01:54:38;55.75;;;52.30;;
53267;SDS011;39156;51.176;6.738;2023-02-08T01:57:10;54.47;;;51.08;;
53267;SDS011;39156;51.176;6.738;2023-02-08T02:02:47;55.42;;;51.72;;
53267;SDS011;39156;51.176;6.738;2023-02-08T02:05:24;55.55;;;51.75;;
53267;SDS011;39156;51.176;6.738;2023-02-08T02:07:54;55.35;;;51.75;;
53267;SDS011;39156;51.176;6.738;2023-02-08T02:10:26;54.88;;;51.22;;
53267;SDS011;39156;51.176;6.738;2023-02-08T02:12:57;54.60;;;51.10;;
53267;SDS011;39156;51.176;6.738;2023-02-08T02:15:30;54.17;;;50.70;;
53267;SDS011;39156;51.176;6.738;2023-02-08T02:17:57;53.65;;;50.17;;
53267;SDS011;39156;51.176;6.738;2023-02-08T02:20:25;54.25;;;50.80;;
53267;SDS011;39156;51.176;6.738;2023-02-08T02:44:21;54.83;;;51.25;;
53267;SDS011;39156;51.176;6.738;2023-02-08T02:50:22;55.15;;;51.60;;
53267;SDS011;39156;51.176;6.738;2023-02-08T02:53:01;54.80;;;51.25;;
53267;SDS011;39156;51.176;6.738;2023-02-08T02:55:44;55.28;;;51.58;;
53267;SDS011;39156;51.176;6.738;2023-02-08T02:58:17;56.67;;;52.83;;
53267;SDS011;39156;51.176;6.738;2023-02-08T03:00:51;54.97;;;51.40;;
53267;SDS011;39156;51.176;6.738;2023-02-08T03:03:23;55.67;;;52.17;;
53267;SDS011;39156;51.176;6.738;2023-02-08T03:05:56;55.85;;;52.03;;
53267;SDS011;39156;51.176;6.738;2023-02-08T03:08:54;56.60;;;52.75;;
53267;SDS011;39156;51.176;6.738;2023-02-08T03:11:41;53.92;;;50.53;;
53267;SDS011;39156;51.176;6.738;2023-02-08T03:14:33;56.33;;;51.53;;
53267;SDS011;39156;51.176;6.738;2023-02-08T03:20:28;53.50;;;50.20;;
53267;SDS011;39156;51.176;6.738;2023-02-08T03:23:11;54.42;;;51.03;;
53267;SDS011;39156;51.176;6.738;2023-02-08T03:26:04;55.13;;;51.58;;
53267;SDS011;39156;51.176;6.738;2023-02-08T03:29:47;54.80;;;51.30;;
53267;SDS011;39156;51.176;6.738;2023-02-08T03:31:58;54.65;;;51.25;;
53267;SDS011;39156;51.176;6.738;2023-02-08T03:34:33;54.72;;;51.22;;
53267;SDS011;39156;51.176;6.738;2023-02-08T03:37:25;54.72;;;51.30;;
53267;SDS011;39156;51.176;6.738;2023-02-08T03:40:43;54.65;;;51.17;;
53267;SDS011;39156;51.176;6.738;2023-02-08T03:42:53;56.55;;;52.92;;
53267;SDS011;39156;51.176;6.738;2023-02-08T03:45:28;54.72;;;51.22;;
53267;SDS011;39156;51.176;6.738;2023-02-08T03:48:00;55.65;;;51.90;;
53267;SDS011;39156;51.176;6.738;2023-02-08T03:50:32;56.08;;;52.60;;
53267;SDS011;39156;51.176;6.738;2023-02-08T03:53:01;55.47;;;51.88;;
53267;SDS011;39156;51.176;6.738;2023-02-08T03:55:30;57.20;;;53.40;;
53267;SDS011;39156;51.176;6.738;2023-02-08T04:00:40;56.10;;;52.53;;
53267;SDS011;39156;51.176;6.738;2023-02-08T04:03:13;56.08;;;52.50;;
53267;SDS011;39156;51.176;6.738;2023-02-08T04:05:47;55.50;;;51.97;;
53267;SDS011;39156;51.176;6.738;2023-02-08T04:08:13;55.20;;;51.72;;
53267;SDS011;39156;51.176;6.738;2023-02-08T04:10:39;54.47;;;51.17;;
53267;SDS011;39156;51.176;6.738;2023-02-08T04:13:05;56.15;;;52.42;;
53267;SDS011;39156;51.176;6.738;2023-02-08T04:15:31;56.33;;;52.83;;
53267;SDS011;39156;51.176;6.738;2023-02-08T04:17:56;57.22;;;53.67;;
53267;SDS011;39156;51.176;6.738;2023-02-08T04:20:22;55.70;;;52.25;;
53267;SDS011;39156;51.176;6.738;2023-02-08T04:22:48;55.38;;;51.92;;
53267;SDS011;39156;51.176;6.738;2023-02-08T04:25:14;57.10;;;53.47;;
53267;SDS011;39156;51.176;6.738;2023-02-08T04:27:39;57.83;;;54.03;;
53267;SDS011;39156;51.176;6.738;2023-02-08T04:30:05;54.80;;;51.40;;
53267;SDS011;39156;51.176;6.738;2023-02-08T04:32:31;56.40;;;52.85;;
53267;SDS011;39156;51.176;6.738;2023-02-08T04:34:57;55.05;;;51.53;;
53267;SDS011;39156;51.176;6.738;2023-02-08T04:37:23;55.47;;;51.78;;
53267;SDS011;39156;51.176;6.738;2023-02-08T04:39:49;55.67;;;52.00;;
53267;SDS011;39156;51.176;6.738;2023-02-08T04:42:14;56.90;;;53.10;;
53267;SDS011;39156;51.176;6.738;2023-02-08T04:44:40;56.70;;;52.85;;
53267;SDS011;39156;51.176;6.738;2023-02-08T04:47:06;56.70;;;52.83;;
53267;SDS011;39156;51.176;6.738;2023-02-08T04:49:32;58.63;;;54.83;;
53267;SDS011;39156;51.176;6.738;2023-02-08T04:51:58;55.65;;;51.97;;
53267;SDS011;39156;51.176;6.738;2023-02-08T04:54:23;56.97;;;53.38;;
53267;SDS011;39156;51.176;6.738;2023-02-08T04:56:49;56.00;;;52.40;;
53267;SDS011;39156;51.176;6.738;2023-02-08T04:59:15;55.95;;;52.50;;
53267;SDS011;39156;51.176;6.738;2023-02-08T05:01:40;57.40;;;53.45;;
53267;SDS011;39156;51.176;6.738;2023-02-08T05:04:06;57.10;;;53.35;;
53267;SDS011;39156;51.176;6.738;2023-02-08T05:06:32;57.50;;;53.70;;
53267;SDS011;39156;51.176;6.738;2023-02-08T05:08:58;55.85;;;52.33;;
53267;SDS011;39156;51.176;6.738;2023-02-08T05:11:23;58.25;;;54.35;;
53267;SDS011;39156;51.176;6.738;2023-02-08T05:13:49;57.38;;;52.97;;
53267;SDS011;39156;51.176;6.738;2023-02-08T05:16:16;58.03;;;53.72;;
53267;SDS011;39156;51.176;6.738;2023-02-08T05:18:41;58.45;;;54.53;;
53267;SDS011;39156;51.176;6.738;2023-02-08T05:21:08;58.20;;;54.60;;
53267;SDS011;39156;51.176;6.738;2023-02-08T05:23:35;57.45;;;53.70;;
53267;SDS011;39156;51.176;6.738;2023-02-08T05:28:35;56.28;;;52.78;;
53267;SDS011;39156;51.176;6.738;2023-02-08T05:31:11;57.25;;;53.55;;
53267;SDS011;39156;51.176;6.738;2023-02-08T05:33:45;58.08;;;54.10;;
53267;SDS011;39156;51.176;6.738;2023-02-08T05:38:38;57.78;;;54.08;;
53267;SDS011;39156;51.176;6.738;2023-02-08T05:41:04;56.83;;;53.25;;
53267;SDS011;39156;51.176;6.738;2023-02-08T05:43:29;60.17;;;56.40;;
53267;SDS011;39156;51.176;6.738;2023-02-08T05:45:55;58.67;;;54.70;;
53267;SDS011;39156;51.176;6.738;2023-02-08T05:48:21;58.83;;;54.97;;
53267;SDS011;39156;51.176;6.738;2023-02-08T05:50:47;57.85;;;54.05;;
53267;SDS011;39156;51.176;6.738;2023-02-08T05:53:12;56.80;;;52.92;;
53267;SDS011;39156;51.176;6.738;2023-02-08T05:55:38;56.65;;;52.97;;
53267;SDS011;39156;51.176;6.738;2023-02-08T05:58:04;57.78;;;54.10;;
53267;SDS011;39156;51.176;6.738;2023-02-08T06:00:29;58.50;;;54.78;;
53267;SDS011;39156;51.176;6.738;2023-02-08T06:02:56;58.03;;;53.95;;
53267;SDS011;39156;51.176;6.738;2023-02-08T06:05:22;57.63;;;54.00;;
53267;SDS011;39156;51.176;6.738;2023-02-08T06:07:48;57.15;;;53.45;;
53267;SDS011;39156;51.176;6.738;2023-02-08T06:10:13;56.97;;;53.30;;
53267;SDS011;39156;51.176;6.738;2023-02-08T06:12:39;57.10;;;53.40;;
53267;SDS011;39156;51.176;6.738;2023-02-08T06:15:04;58.08;;;54.15;;
53267;SDS011;39156;51.176;6.738;2023-02-08T06:17:30;58.50;;;54.50;;
53267;SDS011;39156;51.176;6.738;2023-02-08T06:19:56;58.30;;;54.50;;
53267;SDS011;39156;51.176;6.738;2023-02-08T06:22:22;59.05;;;55.22;;
53267;SDS011;39156;51.176;6.738;2023-02-08T06:24:47;57.25;;;53.47;;
53267;SDS011;39156;51.176;6.738;2023-02-08T06:27:13;57.42;;;53.70;;
53267;SDS011;39156;51.176;6.738;2023-02-08T06:29:39;58.03;;;54.05;;
53267;SDS011;39156;51.176;6.738;2023-02-08T06:32:04;57.92;;;54.08;;
53267;SDS011;39156;51.176;6.738;2023-02-08T06:34:30;58.33;;;54.38;;
53267;SDS011;39156;51.176;6.738;2023-02-08T06:36:56;59.30;;;54.97;;
53267;SDS011;39156;51.176;6.738;2023-02-08T06:39:24;58.42;;;54.22;;
53267;SDS011;39156;51.176;6.738;2023-02-08T06:41:49;57.50;;;53.53;;
53267;SDS011;39156;51.176;6.738;2023-02-08T06:44:15;56.00;;;52.58;;
53267;SDS011;39156;51.176;6.738;2023-02-08T06:46:41;57.20;;;53.55;;
53267;SDS011;39156;51.176;6.738;2023-02-08T06:49:06;57.92;;;53.90;;
53267;SDS011;39156;51.176;6.738;2023-02-08T06:51:32;56.92;;;53.33;;
53267;SDS011;39156;51.176;6.738;2023-02-08T06:53:58;59.60;;;55.40;;
53267;SDS011;39156;51.176;6.738;2023-02-08T06:56:23;59.45;;;55.55;;
53267;SDS011;39156;51.176;6.738;2023-02-08T06:58:49;59.03;;;54.85;;
53267;SDS011;39156;51.176;6.738;2023-02-08T07:01:15;60.97;;;56.88;;
53267;SDS011;39156;51.176;6.738;2023-02-08T07:03:41;60.13;;;55.88;;
53267;SDS011;39156;51.176;6.738;2023-02-08T07:06:13;59.67;;;55.33;;
53267;SDS011;39156;51.176;6.738;2023-02-08T07:08:41;58.53;;;54.42;;
53267;SDS011;39156;51.176;6.738;2023-02-08T07:11:11;58.63;;;54.80;;
53267;SDS011;39156;51.176;6.738;2023-02-08T07:13:40;61.22;;;56.95;;
53267;SDS011;39156;51.176;6.738;2023-02-08T07:16:08;59.83;;;55.88;;
53267;SDS011;39156;51.176;6.738;2023-02-08T07:18:34;58.85;;;54.53;;
53267;SDS011;39156;51.176;6.738;2023-02-08T07:21:00;59.47;;;55.47;;
53267;SDS011;39156;51.176;6.738;2023-02-08T07:23:27;58.30;;;54.23;;
53267;SDS011;39156;51.176;6.738;2023-02-08T07:25:56;58.03;;;54.22;;
53267;SDS011;39156;51.176;6.738;2023-02-08T07:28:26;57.53;;;53.88;;
53267;SDS011;39156;51.176;6.738;2023-02-08T07:30:53;60.00;;;56.22;;
53267;SDS011;39156;51.176;6.738;2023-02-08T07:33:19;58.72;;;54.40;;
53267;SDS011;39156;51.176;6.738;2023-02-08T07:35:45;56.65;;;52.92;;
53267;SDS011;39156;51.176;6.738;2023-02-08T07:38:10;57.15;;;53.10;;
53267;SDS011;39156;51.176;6.738;2023-02-08T07:40:36;56.40;;;52.67;;
53267;SDS011;39156;51.176;6.738;2023-02-08T07:43:02;57.72;;;53.75;;
53267;SDS011;39156;51.176;6.738;2023-02-08T07:45:27;59.25;;;55.08;;
53267;SDS011;39156;51.176;6.738;2023-02-08T07:47:53;55.58;;;51.83;;
53267;SDS011;39156;51.176;6.738;2023-02-08T07:50:19;57.20;;;53.25;;
53267;SDS011;39156;51.176;6.738;2023-02-08T07:52:44;56.72;;;53.03;;
53267;SDS011;39156;51.176;6.738;2023-02-08T07:55:11;55.80;;;52.10;;
53267;SDS011;39156;51.176;6.738;2023-02-08T07:57:44;56.17;;;52.67;;
53267;SDS011;39156;51.176;6.738;2023-02-08T08:00:13;55.85;;;52.00;;
53267;SDS011;39156;51.176;6.738;2023-02-08T08:02:41;54.65;;;50.95;;
53267;SDS011;39156;51.176;6.738;2023-02-08T08:05:07;55.95;;;52.25;;
53267;SDS011;39156;51.176;6.738;2023-02-08T08:07:33;55.28;;;51.67;;
53267;SDS011;39156;51.176;6.738;2023-02-08T08:09:59;54.83;;;51.22;;
53267;SDS011;39156;51.176;6.738;2023-02-08T08:12:25;54.20;;;50.63;;
53267;SDS011;39156;51.176;6.738;2023-02-08T08:14:51;54.20;;;50.47;;
53267;SDS011;39156;51.176;6.738;2023-02-08T08:17:17;54.22;;;50.53;;
53267;SDS011;39156;51.176;6.738;2023-02-08T08:19:43;54.42;;;50.63;;
53267;SDS011;39156;51.176;6.738;2023-02-08T08:22:09;55.63;;;51.92;;
53267;SDS011;39156;51.176;6.738;2023-02-08T08:24:36;55.05;;;51.08;;
53267;SDS011;39156;51.176;6.738;2023-02-08T08:27:02;52.58;;;49.17;;
53267;SDS011;39156;51.176;6.738;2023-02-08T08:29:33;53.78;;;50.33;;
53267;SDS011;39156;51.176;6.738;2023-02-08T08:32:01;53.25;;;49.75;;
53267;SDS011;39156;51.176;6.738;2023-02-08T08:34:28;51.35;;;47.95;;
53267;SDS011;39156;51.176;6.738;2023-02-08T08:36:54;52.92;;;49.53;;
53267;SDS011;39156;51.176;6.738;2023-02-08T08:41:48;53.85;;;50.25;;
53267;SDS011;39156;51.176;6.738;2023-02-08T08:44:13;51.30;;;47.65;;
53267;SDS011;39156;51.176;6.738;2023-02-08T08:46:39;52.13;;;48.47;;
53267;SDS011;39156;51.176;6.738;2023-02-08T08:49:05;49.03;;;46.00;;
53267;SDS011;39156;51.176;6.738;2023-02-08T08:51:31;49.47;;;45.65;;
53267;SDS011;39156;51.176;6.738;2023-02-08T08:53:59;48.05;;;44.95;;
53267;SDS011;39156;51.176;6.738;2023-02-08T08:56:26;46.53;;;43.53;;
53267;SDS011;39156;51.176;6.738;2023-02-08T08:58:52;46.78;;;43.47;;
53267;SDS011;39156;51.176;6.738;2023-02-08T09:01:18;43.58;;;40.75;;
53267;SDS011;39156;51.176;6.738;2023-02-08T09:03:43;43.83;;;41.17;;
53267;SDS011;39156;51.176;6.738;2023-02-08T09:06:09;42.22;;;39.47;;
53267;SDS011;39156;51.176;6.738;2023-02-08T09:08:35;41.22;;;38.50;;
53267;SDS011;39156;51.176;6.738;2023-02-08T09:11:07;40.65;;;38.10;;
53267;SDS011;39156;51.176;6.738;2023-02-08T09:13:36;42.05;;;39.20;;
53267;SDS011;39156;51.176;6.738;2023-02-08T09:16:06;40.55;;;37.80;;
53267;SDS011;39156;51.176;6.738;2023-02-08T09:18:40;41.53;;;38.67;;
53267;SDS011;39156;51.176;6.738;2023-02-08T09:21:08;39.08;;;36.53;;
53267;SDS011;39156;51.176;6.738;2023-02-08T09:23:39;47.75;;;44.10;;
53267;SDS011;39156;51.176;6.738;2023-02-08T09:26:06;41.00;;;38.13;;
53267;SDS011;39156;51.176;6.738;2023-02-08T09:28:36;40.35;;;37.45;;
53267;SDS011;39156;51.176;6.738;2023-02-08T09:31:10;38.65;;;36.15;;
53267;SDS011;39156;51.176;6.738;2023-02-08T09:33:45;37.45;;;34.78;;
53267;SDS011;39156;51.176;6.738;2023-02-08T09:36:12;37.38;;;34.78;;
53267;SDS011;39156;51.176;6.738;2023-02-08T09:38:38;38.45;;;35.85;;
53267;SDS011;39156;51.176;6.738;2023-02-08T09:46:42;36.78;;;34.17;;
53267;SDS011;39156;51.176;6.738;2023-02-08T09:49:17;37.35;;;34.35;;
53267;SDS011;39156;51.176;6.738;2023-02-08T09:51:50;36.85;;;34.42;;
53267;SDS011;39156;51.176;6.738;2023-02-08T09:56:52;35.95;;;33.05;;
53267;SDS011;39156;51.176;6.738;2023-02-08T09:59:24;34.70;;;32.58;;
53267;SDS011;39156;51.176;6.738;2023-02-08T10:02:01;36.88;;;34.58;;
53267;SDS011;39156;51.176;6.738;2023-02-08T10:07:34;36.65;;;34.35;;
53267;SDS011;39156;51.176;6.738;2023-02-08T10:10:02;35.75;;;33.53;;
53267;SDS011;39156;51.176;6.738;2023-02-08T10:12:37;34.58;;;32.45;;
53267;SDS011;39156;51.176;6.738;2023-02-08T10:16:32;36.45;;;34.22;;
53267;SDS011;39156;51.176;6.738;2023-02-08T10:24:13;37.45;;;34.97;;
53267;SDS011;39156;51.176;6.738;2023-02-08T10:32:57;38.22;;;35.85;;
53267;SDS011;39156;51.176;6.738;2023-02-08T10:35:48;38.67;;;36.28;;
53267;SDS011;39156;51.176;6.738;2023-02-08T10:40:43;36.92;;;34.50;;
53267;SDS011;39156;51.176;6.738;2023-02-08T10:46:03;35.33;;;33.10;;
53267;SDS011;39156;51.176;6.738;2023-02-08T10:51:56;33.97;;;31.70;;
53267;SDS011;39156;51.176;6.738;2023-02-08T10:54:22;35.10;;;32.77;;
53267;SDS011;39156;51.176;6.738;2023-02-08T10:56:55;35.60;;;33.60;;
53267;SDS011;39156;51.176;6.738;2023-02-08T10:59:27;34.22;;;32.25;;
53267;SDS011;39156;51.176;6.738;2023-02-08T11:02:01;34.92;;;32.92;;
53267;SDS011;39156;51.176;6.738;2023-02-08T11:04:32;34.67;;;32.50;;
53267;SDS011;39156;51.176;6.738;2023-02-08T11:06:57;35.85;;;33.65;;
53267;SDS011;39156;51.176;6.738;2023-02-08T11:09:45;37.70;;;35.38;;
53267;SDS011;39156;51.176;6.738;2023-02-08T11:12:15;35.95;;;33.85;;
53267;SDS011;39156;51.176;6.738;2023-02-08T11:14:51;36.97;;;34.78;;
53267;SDS011;39156;51.176;6.738;2023-02-08T11:19:49;39.10;;;36.85;;
53267;SDS011;39156;51.176;6.738;2023-02-08T11:22:15;38.38;;;36.17;;
53267;SDS011;39156;51.176;6.738;2023-02-08T11:24:44;36.78;;;34.55;;
53267;SDS011;39156;51.176;6.738;2023-02-08T11:32:45;39.15;;;36.75;;
53267;SDS011;39156;51.176;6.738;2023-02-08T11:37:49;37.00;;;34.72;;
53267;SDS011;39156;51.176;6.738;2023-02-08T11:40:22;39.20;;;37.00;;
53267;SDS011;39156;51.176;6.738;2023-02-08T11:42:55;37.03;;;34.72;;
53267;SDS011;39156;51.176;6.738;2023-02-08T11:45:26;39.50;;;37.10;;
53267;SDS011;39156;51.176;6.738;2023-02-08T11:47:55;39.38;;;37.17;;
53267;SDS011;39156;51.176;6.738;2023-02-08T11:50:23;42.47;;;39.87;;
53267;SDS011;39156;51.176;6.738;2023-02-08T11:53:02;39.10;;;36.90;;
53267;SDS011;39156;51.176;6.738;2023-02-08T11:55:31;39.53;;;37.22;;
53267;SDS011;39156;51.176;6.738;2023-02-08T11:58:02;40.13;;;37.80;;
53267;SDS011;39156;51.176;6.738;2023-02-08T12:00:56;37.97;;;35.72;;
53267;SDS011;39156;51.176;6.738;2023-02-08T12:03:37;39.70;;;37.40;;
53267;SDS011;39156;51.176;6.738;2023-02-08T12:12:01;40.30;;;38.00;;
53267;SDS011;39156;51.176;6.738;2023-02-08T12:15:00;39.72;;;37.47;;
53267;SDS011;39156;51.176;6.738;2023-02-08T12:29:45;39.83;;;37.53;;
53267;SDS011;39156;51.176;6.738;2023-02-08T12:32:33;39.42;;;37.22;;
53267;SDS011;39156;51.176;6.738;2023-02-08T12:38:32;41.05;;;38.75;;
53267;SDS011;39156;51.176;6.738;2023-02-08T12:53:14;39.60;;;37.40;;
53267;SDS011;39156;51.176;6.738;2023-02-08T12:55:47;38.85;;;36.75;;
53267;SDS011;39156;51.176;6.738;2023-02-08T12:58:29;39.67;;;37.47;;
53267;SDS011;39156;51.176;6.738;2023-02-08T13:01:01;41.75;;;39.35;;
53267;SDS011;39156;51.176;6.738;2023-02-08T13:03:49;39.60;;;37.40;;
53267;SDS011;39156;51.176;6.738;2023-02-08T13:06:29;39.00;;;36.90;;
53267;SDS011;39156;51.176;6.738;2023-02-08T13:09:13;39.80;;;37.65;;
53267;SDS011;39156;51.176;6.738;2023-02-08T13:12:10;38.92;;;36.70;;
53267;SDS011;39156;51.176;6.738;2023-02-08T13:14:43;39.97;;;37.67;;
53267;SDS011;39156;51.176;6.738;2023-02-08T13:17:40;38.75;;;36.65;;
53267;SDS011;39156;51.176;6.738;2023-02-08T13:26:07;39.47;;;37.28;;
53267;SDS011;39156;51.176;6.738;2023-02-08T13:28:40;42.05;;;39.55;;
53267;SDS011;39156;51.176;6.738;2023-02-08T13:31:18;40.97;;;38.67;;
53267;SDS011;39156;51.176;6.738;2023-02-08T13:33:55;39.40;;;37.20;;
53267;SDS011;39156;51.176;6.738;2023-02-08T13:36:33;41.17;;;38.70;;
53267;SDS011;39156;51.176;6.738;2023-02-08T13:39:49;40.17;;;37.92;;
53267;SDS011;39156;51.176;6.738;2023-02-08T13:45:06;38.28;;;36.17;;
53267;SDS011;39156;51.176;6.738;2023-02-08T13:53:09;41.97;;;39.58;;
53267;SDS011;39156;51.176;6.738;2023-02-08T13:55:50;38.63;;;36.37;;
53267;SDS011;39156;51.176;6.738;2023-02-08T14:01:21;40.42;;;38.13;;
53267;SDS011;39156;51.176;6.738;2023-02-08T14:19:38;40.58;;;38.10;;
53267;SDS011;39156;51.176;6.738;2023-02-08T14:27:21;39.45;;;37.28;;
53267;SDS011;39156;51.176;6.738;2023-02-08T14:32:40;41.13;;;38.88;;
53267;SDS011;39156;51.176;6.738;2023-02-08T14:37:37;38.20;;;36.10;;
53267;SDS011;39156;51.176;6.738;2023-02-08T14:42:55;38.45;;;36.35;;
53267;SDS011;39156;51.176;6.738;2023-02-08T14:45:32;38.22;;;35.90;;
53267;SDS011;39156;51.176;6.738;2023-02-08T14:48:02;38.92;;;36.72;;
53267;SDS011;39156;51.176;6.738;2023-02-08T14:56:15;38.35;;;36.05;;
53267;SDS011;39156;51.176;6.738;2023-02-08T15:01:37;38.60;;;36.50;;
53267;SDS011;39156;51.176;6.738;2023-02-08T15:04:06;38.75;;;36.47;;
53267;SDS011;39156;51.176;6.738;2023-02-08T15:09:17;38.28;;;36.08;;
53267;SDS011;39156;51.176;6.738;2023-02-08T15:12:01;38.10;;;36.00;;
53267;SDS011;39156;51.176;6.738;2023-02-08T15:14:33;40.65;;;38.38;;
53267;SDS011;39156;51.176;6.738;2023-02-08T15:17:00;39.65;;;37.45;;
53267;SDS011;39156;51.176;6.738;2023-02-08T15:19:30;37.83;;;35.75;;
53267;SDS011;39156;51.176;6.738;2023-02-08T15:24:53;39.75;;;37.45;;
53267;SDS011;39156;51.176;6.738;2023-02-08T15:27:30;38.90;;;36.70;;
53267;SDS011;39156;51.176;6.738;2023-02-08T15:29:58;38.35;;;36.20;;
53267;SDS011;39156;51.176;6.738;2023-02-08T15:32:25;40.42;;;38.13;;
53267;SDS011;39156;51.176;6.738;2023-02-08T15:34:54;37.78;;;35.67;;
53267;SDS011;39156;51.176;6.738;2023-02-08T15:37:26;37.67;;;35.60;;
53267;SDS011;39156;51.176;6.738;2023-02-08T15:39:57;37.72;;;35.63;;
53267;SDS011;39156;51.176;6.738;2023-02-08T15:42:25;39.83;;;37.22;;
53267;SDS011;39156;51.176;6.738;2023-02-08T15:44:55;38.55;;;36.45;;
53267;SDS011;39156;51.176;6.738;2023-02-08T15:47:24;39.95;;;37.60;;
53267;SDS011;39156;51.176;6.738;2023-02-08T15:49:58;38.65;;;36.55;;
53267;SDS011;39156;51.176;6.738;2023-02-08T15:52:27;38.42;;;35.95;;
53267;SDS011;39156;51.176;6.738;2023-02-08T15:54:56;37.45;;;35.35;;
53267;SDS011;39156;51.176;6.738;2023-02-08T16:02:48;39.70;;;37.40;;
53267;SDS011;39156;51.176;6.738;2023-02-08T16:05:27;38.55;;;36.42;;
53267;SDS011;39156;51.176;6.738;2023-02-08T16:07:55;38.05;;;35.92;;
53267;SDS011;39156;51.176;6.738;2023-02-08T16:10:34;39.47;;;37.33;;
53267;SDS011;39156;51.176;6.738;2023-02-08T16:13:16;38.75;;;36.63;;
53267;SDS011;39156;51.176;6.738;2023-02-08T16:15:52;39.10;;;36.90;;
53267;SDS011;39156;51.176;6.738;2023-02-08T16:21:18;41.85;;;39.47;;
53267;SDS011;39156;51.176;6.738;2023-02-08T16:23:57;38.88;;;36.65;;
53267;SDS011;39156;51.176;6.738;2023-02-08T16:26:30;39.42;;;37.05;;
53267;SDS011;39156;51.176;6.738;2023-02-08T16:29:05;41.80;;;39.40;;
53267;SDS011;39156;51.176;6.738;2023-02-08T16:31:41;39.80;;;37.40;;
53267;SDS011;39156;51.176;6.738;2023-02-08T16:34:17;42.58;;;39.83;;
53267;SDS011;39156;51.176;6.738;2023-02-08T16:36:47;39.92;;;37.55;;
53267;SDS011;39156;51.176;6.738;2023-02-08T16:46:55;40.00;;;37.80;;
53267;SDS011;39156;51.176;6.738;2023-02-08T16:49:24;40.63;;;38.28;;
53267;SDS011;39156;51.176;6.738;2023-02-08T16:51:54;41.03;;;38.70;;
53267;SDS011;39156;51.176;6.738;2023-02-08T16:54:21;40.35;;;38.05;;
53267;SDS011;39156;51.176;6.738;2023-02-08T16:56:49;40.70;;;38.20;;
53267;SDS011;39156;51.176;6.738;2023-02-08T16:59:19;42.15;;;39.55;;
53267;SDS011;39156;51.176;6.738;2023-02-08T17:01:46;41.00;;;38.70;;
53267;SDS011;39156;51.176;6.738;2023-02-08T17:04:14;40.55;;;38.25;;
53267;SDS011;39156;51.176;6.738;2023-02-08T17:06:41;40.72;;;38.42;;
53267;SDS011;39156;51.176;6.738;2023-02-08T17:09:10;41.65;;;39.38;;
53267;SDS011;39156;51.176;6.738;2023-02-08T17:11:37;41.38;;;38.90;;
53267;SDS011;39156;51.176;6.738;2023-02-08T17:14:04;41.42;;;39.00;;
53267;SDS011;39156;51.176;6.738;2023-02-08T17:16:31;42.50;;;40.03;;
53267;SDS011;39156;51.176;6.738;2023-02-08T17:18:58;42.92;;;40.45;;
53267;SDS011;39156;51.176;6.738;2023-02-08T17:21:25;41.35;;;39.05;;
53267;SDS011;39156;51.176;6.738;2023-02-08T17:23:53;41.13;;;38.83;;
53267;SDS011;39156;51.176;6.738;2023-02-08T17:26:24;41.85;;;39.45;;
53267;SDS011;39156;51.176;6.738;2023-02-08T17:28:57;40.45;;;38.15;;
53267;SDS011;39156;51.176;6.738;2023-02-08T17:31:23;42.42;;;39.97;;
53267;SDS011;39156;51.176;6.738;2023-02-08T17:36:17;41.90;;;39.50;;
53267;SDS011;39156;51.176;6.738;2023-02-08T17:38:44;42.17;;;39.47;;
53267;SDS011;39156;51.176;6.738;2023-02-08T17:41:15;52.60;;;48.80;;
53267;SDS011;39156;51.176;6.738;2023-02-08T17:43:44;48.17;;;44.88;;
53267;SDS011;39156;51.176;6.738;2023-02-08T17:46:14;47.08;;;43.88;;
53267;SDS011;39156;51.176;6.738;2023-02-08T17:48:43;46.40;;;43.08;;
53267;SDS011;39156;51.176;6.738;2023-02-08T17:51:09;46.95;;;43.85;;
53267;SDS011;39156;51.176;6.738;2023-02-08T17:53:38;42.85;;;40.35;;
53267;SDS011;39156;51.176;6.738;2023-02-08T17:56:28;44.25;;;40.30;;
53267;SDS011;39156;51.176;6.738;2023-02-08T17:58:53;43.50;;;40.90;;
53267;SDS011;39156;51.176;6.738;2023-02-08T18:01:23;41.95;;;39.38;;
53267;SDS011;39156;51.176;6.738;2023-02-08T18:03:50;42.38;;;39.88;;